Time;durP1;ratioP1;P1;durP2;ratioP2;P2;SDS_P1;SDS_P2;PMS_P1;PMS_P2;Temp;Humidity;BMP_temperature;BMP_pressure;BME280_temperature;BME280_humidity;BME280_pressure;Samples;Min_cycle;Max_cycle;Signal;HPM_P1;HPM_P2
2023/10/24 00:01:35;;;;;;;26.57;22.03;;;;;;;;;;5052817;28;20811;-61
2023/10/24 00:04:01;;;;;;;31.20;22.70;;;;;;;;;;5052951;28;20407;-61
2023/10/24 00:06:27;;;;;;;29.07;22.60;;;;;;;;;;5052687;28;20779;-61
2023/10/24 00:08:53;;;;;;;25.30;21.40;;;;;;;;;;5052703;28;20421;-61
2023/10/24 00:11:19;;;;;;;27.50;22.00;;;;;;;;;;5052542;28;20415;-61
2023/10/24 00:13:45;;;;;;;23.77;21.13;;;;;;;;;;5052718;28;20514;-61
2023/10/24 00:16:11;;;;;;;26.80;20.90;;;;;;;;;;5052570;28;20415;-61
2023/10/24 00:18:37;;;;;;;25.70;21.73;;;;;;;;;;5052891;28;20422;-61
2023/10/24 00:21:03;;;;;;;25.30;21.83;;;;;;;;;;5052398;28;20462;-61
2023/10/24 00:23:29;;;;;;;25.30;20.70;;;;;;;;;;5051087;28;20431;-61
2023/10/24 00:25:55;;;;;;;27.50;21.87;;;;;;;;;;5052389;28;20933;-61
2023/10/24 00:28:21;;;;;;;26.13;21.87;;;;;;;;;;5052549;28;20418;-61
2023/10/24 00:30:49;;;;;;;28.47;22.93;;;;;;;;;;5052310;28;20443;-61
2023/10/24 00:33:18;;;;;;;26.43;22.93;;;;;;;;;;5052257;28;20432;-61
2023/10/24 00:35:44;;;;;;;34.13;23.77;;;;;;;;;;5052467;28;20995;-61
2023/10/24 00:38:10;;;;;;;27.90;22.60;;;;;;;;;;5052319;28;20415;-61
2023/10/24 00:40:36;;;;;;;25.87;22.10;;;;;;;;;;5051191;28;20481;-61
2023/10/24 00:43:04;;;;;;;27.83;22.23;;;;;;;;;;5051150;28;20489;-61
2023/10/24 00:45:30;;;;;;;31.73;22.30;;;;;;;;;;5052254;28;20451;-61
2023/10/24 00:47:56;;;;;;;26.77;21.67;;;;;;;;;;5052210;28;20430;-61
2023/10/24 00:50:22;;;;;;;26.60;20.80;;;;;;;;;;5052260;28;20419;-61
2023/10/24 00:52:48;;;;;;;23.73;21.23;;;;;;;;;;5052185;28;20498;-61
2023/10/24 00:55:16;;;;;;;29.63;23.07;;;;;;;;;;5052343;28;20438;-61
2023/10/24 00:57:43;;;;;;;26.40;20.47;;;;;;;;;;5053584;28;20453;-61
2023/10/24 01:00:09;;;;;;;26.17;21.50;;;;;;;;;;5056065;28;20422;-61
2023/10/24 01:02:35;;;;;;;30.67;23.07;;;;;;;;;;5055968;28;20403;-61
2023/10/24 01:05:02;;;;;;;24.50;21.80;;;;;;;;;;5056300;28;20525;-61
2023/10/24 01:07:31;;;;;;;27.33;22.50;;;;;;;;;;5056201;28;20394;-61
2023/10/24 01:09:59;;;;;;;31.53;23.67;;;;;;;;;;5055962;28;20445;-61
2023/10/24 01:12:25;;;;;;;29.47;24.43;;;;;;;;;;5055998;28;20467;-61
2023/10/24 01:14:54;;;;;;;34.10;24.03;;;;;;;;;;5056203;28;20403;-61
2023/10/24 01:17:20;;;;;;;30.30;25.03;;;;;;;;;;5056109;28;20410;-61
2023/10/24 01:19:46;;;;;;;31.93;23.27;;;;;;;;;;5055758;28;20434;-61
2023/10/24 01:22:12;;;;;;;35.73;24.27;;;;;;;;;;5055701;28;20454;-61
2023/10/24 01:24:38;;;;;;;28.00;22.60;;;;;;;;;;5055812;28;20755;-61
2023/10/24 01:27:04;;;;;;;27.07;21.93;;;;;;;;;;5054607;28;20426;-62
2023/10/24 01:29:30;;;;;;;27.07;21.77;;;;;;;;;;5055664;28;20437;-62
2023/10/24 01:31:58;;;;;;;23.60;21.07;;;;;;;;;;5055467;28;20422;-61
2023/10/24 01:34:24;;;;;;;29.77;23.00;;;;;;;;;;5055453;28;20544;-61
2023/10/24 01:36:50;;;;;;;25.83;22.73;;;;;;;;;;5055536;28;20827;-61
2023/10/24 01:39:16;;;;;;;27.13;21.37;;;;;;;;;;5054030;28;20407;-61
2023/10/24 01:41:42;;;;;;;29.00;22.17;;;;;;;;;;5055300;28;20801;-61
2023/10/24 01:44:08;;;;;;;27.87;22.97;;;;;;;;;;5055165;28;20410;-61
2023/10/24 01:46:34;;;;;;;31.37;23.80;;;;;;;;;;5055339;28;20434;-61
2023/10/24 01:49:00;;;;;;;27.83;22.80;;;;;;;;;;5055259;28;20422;-61
2023/10/24 01:51:29;;;;;;;28.30;22.83;;;;;;;;;;5055162;28;20439;-61
2023/10/24 01:53:55;;;;;;;32.13;22.23;;;;;;;;;;5053835;28;20443;-61
2023/10/24 01:56:21;;;;;;;32.60;22.00;;;;;;;;;;5054944;28;20836;-61
2023/10/24 01:58:49;;;;;;;32.17;27.23;;;;;;;;;;5055161;28;20423;-61
2023/10/24 02:01:15;;;;;;;32.87;25.87;;;;;;;;;;5054890;28;20549;-61
2023/10/24 02:03:41;;;;;;;30.57;23.23;;;;;;;;;;5054819;28;20514;-61
2023/10/24 02:06:07;;;;;;;26.90;23.50;;;;;;;;;;5054926;28;20441;-61
2023/10/24 02:08:34;;;;;;;26.67;22.13;;;;;;;;;;5054750;28;20418;-61
2023/10/24 02:11:00;;;;;;;29.23;22.60;;;;;;;;;;5054497;28;20434;-61
2023/10/24 02:13:26;;;;;;;25.37;20.80;;;;;;;;;;5054719;28;20411;-61
2023/10/24 02:15:53;;;;;;;24.00;21.07;;;;;;;;;;5054792;28;20435;-60
2023/10/24 02:18:19;;;;;;;25.00;21.27;;;;;;;;;;5055010;28;20442;-61
2023/10/24 02:20:45;;;;;;;26.83;21.87;;;;;;;;;;5053253;28;21035;-61
2023/10/24 02:23:11;;;;;;;31.90;23.20;;;;;;;;;;5054620;28;20403;-61
2023/10/24 02:25:37;;;;;;;29.03;23.57;;;;;;;;;;5054504;28;20438;-61
2023/10/24 02:28:04;;;;;;;35.07;23.60;;;;;;;;;;5054535;28;20407;-61
2023/10/24 02:30:30;;;;;;;32.90;23.97;;;;;;;;;;5054307;28;20430;-61
2023/10/24 02:33:01;;;;;;;23.77;20.50;;;;;;;;;;5054571;28;20525;-61
2023/10/24 02:35:28;;;;;;;27.93;22.47;;;;;;;;;;5054331;28;20894;-61
2023/10/24 02:37:54;;;;;;;28.50;21.90;;;;;;;;;;5054403;28;20494;-61
2023/10/24 02:40:20;;;;;;;26.73;21.20;;;;;;;;;;5054206;28;20504;-61
2023/10/24 02:42:48;;;;;;;26.73;20.10;;;;;;;;;;5054203;28;20403;-61
2023/10/24 02:45:14;;;;;;;24.47;21.83;;;;;;;;;;5054109;28;20497;-61
2023/10/24 02:47:40;;;;;;;22.40;20.07;;;;;;;;;;5054102;28;20910;-61
2023/10/24 02:50:06;;;;;;;23.70;21.20;;;;;;;;;;5054130;28;20417;-61
2023/10/24 02:52:32;;;;;;;21.87;19.63;;;;;;;;;;5053933;28;20427;-61
2023/10/24 02:54:58;;;;;;;28.90;21.80;;;;;;;;;;5053980;28;20418;-61
2023/10/24 02:57:24;;;;;;;28.27;20.70;;;;;;;;;;5053905;28;20490;-61
2023/10/24 02:59:53;;;;;;;23.83;21.23;;;;;;;;;;5053960;28;20502;-61
2023/10/24 03:02:21;;;;;;;23.83;21.20;;;;;;;;;;5053761;28;20474;-61
2023/10/24 03:04:47;;;;;;;24.37;21.53;;;;;;;;;;5053900;28;20514;-61
2023/10/24 03:07:13;;;;;;;25.93;19.77;;;;;;;;;;5053874;28;20910;-61
2023/10/24 03:09:39;;;;;;;29.17;21.43;;;;;;;;;;5053746;28;20859;-61
2023/10/24 03:12:09;;;;;;;22.47;20.23;;;;;;;;;;5053598;28;20446;-61
2023/10/24 03:14:35;;;;;;;25.93;20.60;;;;;;;;;;5053988;28;20933;-61
2023/10/24 03:17:03;;;;;;;23.43;20.83;;;;;;;;;;5053576;28;20514;-61
2023/10/24 03:19:32;;;;;;;25.63;19.10;;;;;;;;;;5053496;28;20461;-61
2023/10/24 03:22:00;;;;;;;22.47;19.03;;;;;;;;;;5052503;28;20471;-61
2023/10/24 03:24:32;;;;;;;28.17;18.50;;;;;;;;;;5051967;28;20463;-61
2023/10/24 03:26:58;;;;;;;21.03;18.83;;;;;;;;;;5053337;28;20430;-61
2023/10/24 03:29:24;;;;;;;26.23;20.27;;;;;;;;;;5053387;28;20878;-61
2023/10/24 03:31:52;;;;;;;26.57;19.23;;;;;;;;;;5052074;28;20447;-61
2023/10/24 03:34:18;;;;;;;21.53;19.13;;;;;;;;;;5053240;28;20505;-61
2023/10/24 03:36:44;;;;;;;22.70;18.87;;;;;;;;;;5053161;28;20525;-61
2023/10/24 03:39:10;;;;;;;24.53;19.60;;;;;;;;;;5053082;28;20448;-61
2023/10/24 03:41:38;;;;;;;20.63;18.43;;;;;;;;;;5052975;28;20477;-61
2023/10/24 03:44:04;;;;;;;24.10;20.87;;;;;;;;;;5053081;28;20422;-61
2023/10/24 03:46:32;;;;;;;25.80;19.50;;;;;;;;;;5052971;28;20426;-61
2023/10/24 03:48:58;;;;;;;25.93;19.63;;;;;;;;;;5052993;28;20425;-61
2023/10/24 03:51:24;;;;;;;30.67;20.37;;;;;;;;;;5052981;28;20453;-61
2023/10/24 03:53:55;;;;;;;40.60;32.97;;;;;;;;;;5052793;28;20498;-61
2023/10/24 03:56:21;;;;;;;20.00;17.90;;;;;;;;;;5052919;28;20490;-61
2023/10/24 03:58:47;;;;;;;19.30;16.10;;;;;;;;;;5052875;28;20415;-61
2023/10/24 04:01:13;;;;;;;18.73;15.40;;;;;;;;;;5052643;28;20535;-61
2023/10/24 04:03:39;;;;;;;18.40;14.53;;;;;;;;;;5052736;28;20403;-61
2023/10/24 04:06:13;;;;;;;24.27;21.13;;;;;;;;;;5052834;28;20402;-61
2023/10/24 04:08:39;;;;;;;31.10;25.53;;;;;;;;;;5052677;28;20406;-61
2023/10/24 04:11:15;;;;;;;29.53;23.90;;;;;;;;;;5052573;28;20502;-61
2023/10/24 04:13:41;;;;;;;22.87;20.47;;;;;;;;;;5052630;28;20774;-61
2023/10/24 04:16:07;;;;;;;26.63;20.60;;;;;;;;;;5052548;28;20418;-62
2023/10/24 04:18:35;;;;;;;33.17;22.37;;;;;;;;;;5052681;28;20422;-62
2023/10/24 04:21:01;;;;;;;29.10;24.33;;;;;;;;;;5052372;28;20467;-62
2023/10/24 04:23:29;;;;;;;27.07;20.07;;;;;;;;;;5051493;28;20431;-62
2023/10/24 04:25:55;;;;;;;20.87;18.57;;;;;;;;;;5052620;28;20782;-62
2023/10/24 04:28:24;;;;;;;33.07;26.30;;;;;;;;;;5052578;28;20892;-62
2023/10/24 04:30:52;;;;;;;28.60;25.37;;;;;;;;;;5052322;28;20734;-62
2023/10/24 04:33:18;;;;;;;26.03;22.60;;;;;;;;;;5052136;28;20414;-62
2023/10/24 04:35:47;;;;;;;22.77;19.87;;;;;;;;;;5052423;28;20857;-62
2023/10/24 04:38:13;;;;;;;22.47;19.00;;;;;;;;;;5052707;28;20423;-62
2023/10/24 04:40:39;;;;;;;23.33;18.63;;;;;;;;;;5052255;28;20462;-62
2023/10/24 04:43:09;;;;;;;24.70;21.43;;;;;;;;;;5051081;28;20512;-62
2023/10/24 04:45:35;;;;;;;23.40;19.20;;;;;;;;;;5052358;28;20769;-62
2023/10/24 04:48:02;;;;;;;27.50;18.80;;;;;;;;;;5052253;28;20434;-62
2023/10/24 04:50:28;;;;;;;22.33;19.07;;;;;;;;;;5052184;28;20439;-62
2023/10/24 04:52:55;;;;;;;22.90;20.50;;;;;;;;;;5052214;28;20506;-61
2023/10/24 04:55:21;;;;;;;23.10;20.60;;;;;;;;;;5052375;28;20415;-62
2023/10/24 04:57:50;;;;;;;28.10;20.67;;;;;;;;;;5052192;28;20434;-62
2023/10/24 05:00:16;;;;;;;30.03;20.23;;;;;;;;;;5052146;28;20431;-62
2023/10/24 05:02:43;;;;;;;24.60;20.80;;;;;;;;;;5052493;28;20430;-62
2023/10/24 05:05:09;;;;;;;25.00;20.70;;;;;;;;;;5052234;28;20407;-62
2023/10/24 05:07:35;;;;;;;23.83;19.80;;;;;;;;;;5052082;28;20447;-62
2023/10/24 05:10:04;;;;;;;24.90;18.03;;;;;;;;;;5052104;28;20431;-62
2023/10/24 05:12:30;;;;;;;25.83;19.27;;;;;;;;;;5052106;28;20952;-62
2023/10/24 05:14:57;;;;;;;29.97;18.90;;;;;;;;;;5052123;28;20420;-62
2023/10/24 05:17:23;;;;;;;19.70;17.67;;;;;;;;;;5052016;28;20941;-62
2023/10/24 05:19:48;;;;;;;26.60;18.40;;;;;;;;;;5051943;28;20465;-62
2023/10/24 05:22:14;;;;;;;20.87;18.77;;;;;;;;;;5051916;28;20485;-62
2023/10/24 05:24:43;;;;;;;19.60;17.30;;;;;;;;;;5050820;28;20430;-62
2023/10/24 05:27:09;;;;;;;20.77;17.67;;;;;;;;;;5051783;28;20447;-62
2023/10/24 05:29:35;;;;;;;22.13;18.53;;;;;;;;;;5051933;28;20419;-62
2023/10/24 05:32:03;;;;;;;25.30;18.20;;;;;;;;;;5051822;28;20810;-62
2023/10/24 05:34:29;;;;;;;24.40;17.90;;;;;;;;;;5051969;28;20476;-62
2023/10/24 05:36:58;;;;;;;23.57;18.43;;;;;;;;;;5051670;28;20921;-62
2023/10/24 05:39:26;;;;;;;41.37;19.33;;;;;;;;;;5051727;28;20787;-62
2023/10/24 05:41:53;;;;;;;21.67;19.00;;;;;;;;;;5051646;28;20561;-62
2023/10/24 05:44:19;;;;;;;20.33;18.07;;;;;;;;;;5052589;28;20410;-62
2023/10/24 05:46:45;;;;;;;20.53;18.20;;;;;;;;;;5055337;28;20403;-62
2023/10/24 05:49:13;;;;;;;22.50;17.70;;;;;;;;;;5055340;28;20882;-62
2023/10/24 05:51:39;;;;;;;29.00;20.60;;;;;;;;;;5055181;28;20500;-62
2023/10/24 05:54:05;;;;;;;24.10;18.93;;;;;;;;;;5055086;28;20848;-62
2023/10/24 05:56:34;;;;;;;27.83;17.20;;;;;;;;;;5054622;28;20461;-62
2023/10/24 05:59:00;;;;;;;19.67;17.77;;;;;;;;;;5054956;28;20926;-62
2023/10/24 06:01:26;;;;;;;27.97;20.90;;;;;;;;;;5053726;28;20469;-62
2023/10/24 06:03:52;;;;;;;26.87;20.83;;;;;;;;;;5055049;28;20501;-62
2023/10/24 06:06:18;;;;;;;21.20;19.07;;;;;;;;;;5054862;28;20414;-62
2023/10/24 06:08:44;;;;;;;17.30;15.60;;;;;;;;;;5054912;28;20411;-62
2023/10/24 06:11:15;;;;;;;15.63;14.00;;;;;;;;;;5054918;28;21009;-62
2023/10/24 06:13:41;;;;;;;17.37;15.47;;;;;;;;;;5053566;28;20446;-62
2023/10/24 06:16:08;;;;;;;13.80;12.40;;;;;;;;;;5054725;28;20420;-62
2023/10/24 06:18:34;;;;;;;16.63;14.90;;;;;;;;;;5054802;28;20822;-62
2023/10/24 06:21:03;;;;;;;15.50;13.90;;;;;;;;;;5054463;28;20478;-62
2023/10/24 06:23:29;;;;;;;16.57;14.80;;;;;;;;;;5053376;28;20438;-62
2023/10/24 06:25:56;;;;;;;18.73;14.67;;;;;;;;;;5054695;28;20419;-62
2023/10/24 06:28:22;;;;;;;23.83;15.23;;;;;;;;;;5054488;28;20437;-62
2023/10/24 06:30:49;;;;;;;10.20;9.30;;;;;;;;;;5054359;28;20475;-62
2023/10/24 06:33:18;;;;;;;9.37;8.67;;;;;;;;;;5054416;28;20489;-62
2023/10/24 06:35:43;;;;;;;10.37;7.50;;;;;;;;;;5054525;28;20816;-62
2023/10/24 06:38:09;;;;;;;10.87;8.27;;;;;;;;;;5054227;28;20435;-62
2023/10/24 06:40:35;;;;;;;11.30;7.73;;;;;;;;;;5054299;28;20446;-62
2023/10/24 06:43:05;;;;;;;11.10;9.53;;;;;;;;;;5054316;28;20465;-62
2023/10/24 06:45:31;;;;;;;8.40;7.60;;;;;;;;;;5054139;28;20409;-62
2023/10/24 06:47:57;;;;;;;8.70;7.80;;;;;;;;;;5054095;28;20446;-62
2023/10/24 06:50:23;;;;;;;10.50;7.40;;;;;;;;;;5053993;28;20506;-62
2023/10/24 06:52:49;;;;;;;10.27;9.23;;;;;;;;;;5054240;28;20418;-62
2023/10/24 06:55:15;;;;;;;10.53;8.80;;;;;;;;;;5053971;28;20421;-62
2023/10/24 06:57:41;;;;;;;9.43;8.63;;;;;;;;;;5054259;28;20478;-61
2023/10/24 07:00:08;;;;;;;13.37;12.03;;;;;;;;;;5054163;28;20420;-62
2023/10/24 07:02:37;;;;;;;17.00;11.00;;;;;;;;;;5052685;28;20474;-62
2023/10/24 07:05:03;;;;;;;14.53;12.60;;;;;;;;;;5054072;28;20422;-62
2023/10/24 07:07:31;;;;;;;14.33;12.93;;;;;;;;;;5053934;28;20902;-62
2023/10/24 07:09:57;;;;;;;14.97;13.57;;;;;;;;;;5053960;28;20454;-62
2023/10/24 07:12:23;;;;;;;19.53;12.03;;;;;;;;;;5053569;28;20898;-62
2023/10/24 07:14:53;;;;;;;14.83;12.80;;;;;;;;;;5053681;28;20407;-62
2023/10/24 07:17:19;;;;;;;14.37;12.80;;;;;;;;;;5053197;28;20454;-62
2023/10/24 07:19:45;;;;;;;16.73;14.30;;;;;;;;;;5053454;28;20815;-61
2023/10/24 07:22:11;;;;;;;23.33;15.60;;;;;;;;;;5053220;28;20473;-61
2023/10/24 07:24:41;;;;;;;20.43;13.70;;;;;;;;;;5053545;28;20439;-61
2023/10/24 07:27:12;;;;;;;24.60;20.53;;;;;;;;;;5053488;28;21070;-61
2023/10/24 07:29:38;;;;;;;33.97;29.10;;;;;;;;;;5053627;28;20411;-61
2023/10/24 07:32:04;;;;;;;33.40;24.90;;;;;;;;;;5053282;28;20472;-61
2023/10/24 07:34:34;;;;;;;17.07;13.77;;;;;;;;;;5053270;28;20418;-61
2023/10/24 07:37:00;;;;;;;13.43;12.10;;;;;;;;;;5053252;28;20909;-61
2023/10/24 07:39:28;;;;;;;17.97;14.00;;;;;;;;;;5053128;28;20838;-61
2023/10/24 07:41:54;;;;;;;15.27;12.43;;;;;;;;;;5053215;28;20455;-61
2023/10/24 07:44:20;;;;;;;15.90;11.30;;;;;;;;;;5053130;28;20816;-61
2023/10/24 07:46:46;;;;;;;33.43;23.53;;;;;;;;;;5053221;28;20423;-61
2023/10/24 07:49:14;;;;;;;29.77;20.30;;;;;;;;;;5053065;28;20488;-61
2023/10/24 07:51:40;;;;;;;19.00;15.23;;;;;;;;;;5053416;28;20416;-61
2023/10/24 07:54:06;;;;;;;20.47;16.60;;;;;;;;;;5052974;28;20945;-61
2023/10/24 07:56:36;;;;;;;15.53;13.97;;;;;;;;;;5052932;28;20447;-61
2023/10/24 07:59:05;;;;;;;15.90;14.30;;;;;;;;;;5052892;28;20443;-61
2023/10/24 08:01:31;;;;;;;19.60;12.20;;;;;;;;;;5052756;28;20554;-61
2023/10/24 08:03:58;;;;;;;13.97;10.60;;;;;;;;;;5052814;28;20434;-61
2023/10/24 08:06:29;;;;;;;20.00;13.87;;;;;;;;;;5052642;28;20408;-61
2023/10/24 08:08:55;;;;;;;25.77;17.60;;;;;;;;;;5052408;28;20439;-61
2023/10/24 08:11:23;;;;;;;16.03;14.50;;;;;;;;;;5052780;28;20424;-61
2023/10/24 08:13:49;;;;;;;24.87;21.20;;;;;;;;;;5052722;28;20482;-62
2023/10/24 08:16:17;;;;;;;29.43;20.83;;;;;;;;;;5052746;28;20411;-61
2023/10/24 08:18:44;;;;;;;29.97;22.70;;;;;;;;;;5052352;28;20417;-61
2023/10/24 08:21:12;;;;;;;24.63;21.47;;;;;;;;;;5052468;28;20561;-61
2023/10/24 08:23:38;;;;;;;21.20;18.63;;;;;;;;;;5052395;28;20969;-62
2023/10/24 08:26:04;;;;;;;31.53;23.90;;;;;;;;;;5052516;28;20439;-61
2023/10/24 08:28:32;;;;;;;41.13;27.87;;;;;;;;;;5052523;28;20454;-61
2023/10/24 08:30:57;;;;;;;192.27;118.23;;;;;;;;;;5052639;28;20501;-61
2023/10/24 08:33:28;;;;;;;236.43;136.10;;;;;;;;;;5052427;28;20478;-61
2023/10/24 08:35:54;;;;;;;61.57;40.27;;;;;;;;;;5052431;28;20833;-62
2023/10/24 08:38:23;;;;;;;24.60;17.23;;;;;;;;;;5052483;28;20441;-61
2023/10/24 08:40:49;;;;;;;22.57;17.40;;;;;;;;;;5052571;28;20477;-61
2023/10/24 08:43:18;;;;;;;21.37;17.80;;;;;;;;;;5052315;28;20432;-61
2023/10/24 08:45:47;;;;;;;10.70;8.90;;;;;;;;;;5051190;28;20458;-62
2023/10/24 08:48:13;;;;;;;7.50;6.73;;;;;;;;;;5052340;28;20503;-61
2023/10/24 08:50:40;;;;;;;17.43;7.70;;;;;;;;;;5052224;28;20420;-61
2023/10/24 08:53:10;;;;;;;6.70;6.10;;;;;;;;;;5052367;28;20987;-62
2023/10/24 08:55:37;;;;;;;7.60;6.57;;;;;;;;;;5052220;28;20411;-61
2023/10/24 08:58:03;;;;;;;13.60;11.50;;;;;;;;;;5052437;28;20490;-61
2023/10/24 09:00:30;;;;;;;36.30;24.20;;;;;;;;;;5052143;28;20987;-61
2023/10/24 09:02:56;;;;;;;42.03;26.73;;;;;;;;;;5052365;28;20491;-62
2023/10/24 09:05:27;;;;;;;12.00;9.97;;;;;;;;;;5051034;28;20433;-62
2023/10/24 09:07:53;;;;;;;12.30;11.00;;;;;;;;;;5053307;28;20408;-62
2023/10/24 09:10:20;;;;;;;10.43;8.27;;;;;;;;;;5052373;28;20427;-61
2023/10/24 09:12:53;;;;;;;16.07;11.93;;;;;;;;;;5052191;28;20883;-62
2023/10/24 09:15:19;;;;;;;7.00;6.30;;;;;;;;;;5053620;28;20780;-61
2023/10/24 09:17:45;;;;;;;4.07;3.87;;;;;;;;;;5052069;28;20951;-61
2023/10/24 09:20:11;;;;;;;3.27;3.07;;;;;;;;;;5054374;28;20501;-61
2023/10/24 09:22:43;;;;;;;2.93;2.80;;;;;;;;;;5056205;28;20839;-61
2023/10/24 09:25:09;;;;;;;3.43;3.13;;;;;;;;;;5055962;28;20447;-61
2023/10/24 09:27:35;;;;;;;3.60;1.60;;;;;;;;;;5055963;28;20914;-62
2023/10/24 09:30:11;;;;;;;2.37;2.17;;;;;;;;;;5055915;28;20443;-61
2023/10/24 09:32:39;;;;;;;2.63;1.83;;;;;;;;;;5055943;28;20414;-61
2023/10/24 09:35:05;;;;;;;1.57;1.57;;;;;;;;;;5056222;28;20858;-61
2023/10/24 09:37:31;;;;;;;2.57;2.37;;;;;;;;;;5055944;28;20459;-61
2023/10/24 09:40:01;;;;;;;2.00;1.90;;;;;;;;;;5055514;28;20459;-61
2023/10/24 09:42:29;;;;;;;2.10;1.90;;;;;;;;;;5055901;28;20580;-61
2023/10/24 09:44:57;;;;;;;1.20;1.20;;;;;;;;;;5055475;28;20438;-62
2023/10/24 09:47:24;;;;;;;2.97;1.73;;;;;;;;;;5055462;28;20873;-61
2023/10/24 09:49:53;;;;;;;3.20;1.33;;;;;;;;;;5055315;28;20412;-62
2023/10/24 09:52:20;;;;;;;1.10;1.10;;;;;;;;;;5055322;28;20444;-61
2023/10/24 09:54:50;;;;;;;1.20;1.20;;;;;;;;;;5055086;28;20423;-61
2023/10/24 09:57:20;;;;;;;3.07;1.20;;;;;;;;;;5055345;28;20424;-61
2023/10/24 09:59:47;;;;;;;1.93;1.23;;;;;;;;;;5055157;28;20446;-61
2023/10/24 10:02:14;;;;;;;1.33;1.17;;;;;;;;;;5055117;28;20550;-61
2023/10/24 10:04:40;;;;;;;0.90;0.90;;;;;;;;;;5055003;28;20439;-61
2023/10/24 10:07:07;;;;;;;1.23;1.23;;;;;;;;;;5055682;28;20907;-61
2023/10/24 10:09:34;;;;;;;1.00;1.00;;;;;;;;;;5055200;28;20805;-61
2023/10/24 10:12:02;;;;;;;5.13;0.90;;;;;;;;;;5055102;28;20467;-62
2023/10/24 10:14:40;;;;;;;1.33;1.17;;;;;;;;;;5054899;28;20443;-61
2023/10/24 10:17:06;;;;;;;1.17;1.07;;;;;;;;;;5054971;28;20421;-61
2023/10/24 10:19:32;;;;;;;0.90;0.90;;;;;;;;;;5054580;28;20484;-61
2023/10/24 10:22:17;;;;;;;1.53;1.03;;;;;;;;;;5054971;28;20557;-61
2023/10/24 10:25:02;;;;;;;1.63;0.90;;;;;;;;;;5054641;28;20402;-61
2023/10/24 10:27:33;;;;;;;1.07;1.07;;;;;;;;;;5054791;28;20925;-61
2023/10/24 10:30:32;;;;;;;2.10;1.10;;;;;;;;;;5054144;28;20777;-61
2023/10/24 10:32:58;;;;;;;1.03;0.90;;;;;;;;;;5042564;28;20507;-61
2023/10/24 10:35:46;;;;;;;1.00;1.00;;;;;;;;;;5054576;28;20526;-61
2023/10/24 10:38:23;;;;;;;0.90;0.90;;;;;;;;;;5054897;28;20772;-61
2023/10/24 10:40:49;;;;;;;1.00;1.00;;;;;;;;;;5054754;28;20455;-61
2023/10/24 10:43:29;;;;;;;1.17;1.03;;;;;;;;;;5054756;28;20415;-61
2023/10/24 10:46:15;;;;;;;1.00;1.00;;;;;;;;;;5054719;28;20534;-61
2023/10/24 10:48:41;;;;;;;1.20;1.10;;;;;;;;;;5054618;28;20478;-61
2023/10/24 10:51:07;;;;;;;1.70;1.07;;;;;;;;;;5054259;28;20429;-62
2023/10/24 10:53:52;;;;;;;1.60;1.03;;;;;;;;;;5054344;28;20482;-61
2023/10/24 10:56:30;;;;;;;0.93;0.93;;;;;;;;;;5054571;28;20411;-61
2023/10/24 10:58:59;;;;;;;1.03;0.83;;;;;;;;;;5052976;28;20442;-61
2023/10/24 11:01:34;;;;;;;1.90;0.97;;;;;;;;;;5054189;28;20503;-61
2023/10/24 11:04:02;;;;;;;0.80;0.80;;;;;;;;;;5054149;28;20473;-61
2023/10/24 11:06:29;;;;;;;0.80;0.80;;;;;;;;;;5054201;28;20815;-61
2023/10/24 11:09:21;;;;;;;2.50;0.70;;;;;;;;;;5053928;28;20561;-61
2023/10/24 11:11:47;;;;;;;2.73;0.90;;;;;;;;;;5052766;28;20953;-61
2023/10/24 11:14:14;;;;;;;0.80;0.80;;;;;;;;;;5053770;28;20395;-61
2023/10/24 11:16:42;;;;;;;0.70;0.70;;;;;;;;;;5053727;28;20398;-61
2023/10/24 11:19:08;;;;;;;2.10;0.80;;;;;;;;;;5053534;28;20417;-61
2023/10/24 11:21:35;;;;;;;1.03;1.03;;;;;;;;;;5053530;28;20510;-61
2023/10/24 11:24:01;;;;;;;0.60;0.60;;;;;;;;;;5053299;28;20407;-61
2023/10/24 11:26:27;;;;;;;0.70;0.70;;;;;;;;;;5053397;28;20416;-62
2023/10/24 11:28:54;;;;;;;1.87;0.80;;;;;;;;;;5052085;28;20523;-61
2023/10/24 11:31:23;;;;;;;1.00;0.87;;;;;;;;;;5053552;28;20417;-62
2023/10/24 11:33:49;;;;;;;2.23;1.00;;;;;;;;;;5052001;28;20431;-62
2023/10/24 11:36:18;;;;;;;1.77;1.00;;;;;;;;;;5053281;28;20848;-62
2023/10/24 11:38:47;;;;;;;2.77;0.90;;;;;;;;;;5053653;28;20408;-62
2023/10/24 11:41:15;;;;;;;0.80;0.70;;;;;;;;;;5053199;28;20947;-61
2023/10/24 11:43:43;;;;;;;0.80;0.80;;;;;;;;;;5052823;28;20925;-61
2023/10/24 11:46:09;;;;;;;0.80;0.80;;;;;;;;;;5053334;28;20430;-62
2023/10/24 11:48:35;;;;;;;0.77;0.70;;;;;;;;;;5053079;28;20439;-62
2023/10/24 11:51:08;;;;;;;0.70;0.70;;;;;;;;;;5052774;28;20878;-62
2023/10/24 11:53:34;;;;;;;2.43;0.90;;;;;;;;;;5052751;28;20467;-61
2023/10/24 11:56:00;;;;;;;0.80;0.60;;;;;;;;;;5052761;28;20494;-61
2023/10/24 11:58:33;;;;;;;0.60;0.60;;;;;;;;;;5052297;28;20904;-61
2023/10/24 12:01:04;;;;;;;5.00;0.70;;;;;;;;;;5052508;28;20460;-61
2023/10/24 12:03:46;;;;;;;0.80;0.80;;;;;;;;;;5053167;28;20449;-61
2023/10/24 12:06:12;;;;;;;1.00;1.00;;;;;;;;;;5052493;28;20433;-62
2023/10/24 12:08:38;;;;;;;0.80;0.80;;;;;;;;;;5052619;28;20417;-61
2023/10/24 12:11:04;;;;;;;3.33;2.83;;;;;;;;;;5052470;28;20436;-62
2023/10/24 12:13:30;;;;;;;6.77;6.00;;;;;;;;;;5052705;28;20427;-62
2023/10/24 12:15:57;;;;;;;2.40;2.00;;;;;;;;;;5052650;28;20437;-61
2023/10/24 12:18:25;;;;;;;5.67;5.10;;;;;;;;;;5052695;28;20413;-62
2023/10/24 12:20:51;;;;;;;25.53;18.50;;;;;;;;;;5052431;28;20976;-62
2023/10/24 12:23:18;;;;;;;13.90;8.60;;;;;;;;;;5052354;28;20428;-62
2023/10/24 12:25:44;;;;;;;2.90;2.70;;;;;;;;;;5052514;28;20511;-62
2023/10/24 12:28:10;;;;;;;1.80;1.80;;;;;;;;;;5052373;28;20569;-62
2023/10/24 12:30:39;;;;;;;1.70;0.97;;;;;;;;;;5052407;28;20432;-62
2023/10/24 12:33:05;;;;;;;0.90;0.90;;;;;;;;;;5052387;28;20447;-62
2023/10/24 12:35:31;;;;;;;1.63;0.83;;;;;;;;;;5052368;28;20849;-62
2023/10/24 12:37:58;;;;;;;2.10;0.80;;;;;;;;;;5052458;28;20474;-62
2023/10/24 12:40:24;;;;;;;1.10;0.70;;;;;;;;;;5050969;28;20475;-62
2023/10/24 12:42:50;;;;;;;1.00;0.97;;;;;;;;;;5052368;28;20416;-62
2023/10/24 12:45:16;;;;;;;0.67;0.67;;;;;;;;;;5050781;28;20415;-62
2023/10/24 12:47:45;;;;;;;2.10;0.77;;;;;;;;;;5052331;28;20440;-62
2023/10/24 12:50:11;;;;;;;1.00;1.00;;;;;;;;;;5052014;28;20441;-61
2023/10/24 12:52:37;;;;;;;0.80;0.80;;;;;;;;;;5052455;28;20777;-61
2023/10/24 12:55:03;;;;;;;0.80;0.73;;;;;;;;;;5054687;28;20428;-61
2023/10/24 12:57:32;;;;;;;2.87;0.90;;;;;;;;;;5056237;28;20406;-62
2023/10/24 12:59:58;;;;;;;0.70;0.70;;;;;;;;;;5056171;28;20405;-62
2023/10/24 13:02:26;;;;;;;0.90;0.90;;;;;;;;;;5056055;28;20469;-62
2023/10/24 13:04:55;;;;;;;0.77;0.77;;;;;;;;;;5056288;28;20493;-61
2023/10/24 13:07:21;;;;;;;0.97;0.80;;;;;;;;;;5056305;28;20420;-61
2023/10/24 13:09:47;;;;;;;0.67;0.67;;;;;;;;;;5056215;28;20413;-62
2023/10/24 13:12:13;;;;;;;0.73;0.73;;;;;;;;;;5054780;28;20848;-61
2023/10/24 13:14:41;;;;;;;0.70;0.70;;;;;;;;;;5056140;28;20820;-62
2023/10/24 13:17:07;;;;;;;5.73;0.90;;;;;;;;;;5056011;28;20418;-62
2023/10/24 13:19:33;;;;;;;0.83;0.83;;;;;;;;;;5056024;28;20437;-61
2023/10/24 13:22:02;;;;;;;0.90;0.90;;;;;;;;;;5055781;28;20972;-61
2023/10/24 13:24:29;;;;;;;1.43;0.83;;;;;;;;;;5055706;28;20919;-62
2023/10/24 13:26:55;;;;;;;4.67;1.07;;;;;;;;;;5055944;28;20438;-62
2023/10/24 13:29:20;;;;;;;0.73;0.73;;;;;;;;;;5055663;28;20429;-61
2023/10/24 13:31:50;;;;;;;0.93;0.93;;;;;;;;;;5055853;28;20532;-62
2023/10/24 13:34:17;;;;;;;0.80;0.80;;;;;;;;;;5055725;28;20407;-61
2023/10/24 13:36:45;;;;;;;1.80;1.00;;;;;;;;;;5055741;28;20937;-62
2023/10/24 13:39:11;;;;;;;0.83;0.83;;;;;;;;;;5055840;28;20501;-62
2023/10/24 13:41:37;;;;;;;0.73;0.73;;;;;;;;;;5054231;28;21036;-62
2023/10/24 13:44:05;;;;;;;1.47;0.70;;;;;;;;;;5054419;28;20423;-61
2023/10/24 13:46:32;;;;;;;1.00;0.90;;;;;;;;;;5055330;28;20439;-62
2023/10/24 13:48:58;;;;;;;1.00;1.00;;;;;;;;;;5055442;28;20786;-62
2023/10/24 13:51:24;;;;;;;1.37;1.37;;;;;;;;;;5055326;28;20453;-61
2023/10/24 13:53:54;;;;;;;1.00;1.00;;;;;;;;;;5054072;28;20426;-62
2023/10/24 13:56:20;;;;;;;0.80;0.80;;;;;;;;;;5055338;28;20442;-62
2023/10/24 13:58:48;;;;;;;0.93;0.93;;;;;;;;;;5055350;28;20409;-62
2023/10/24 14:01:14;;;;;;;0.80;0.80;;;;;;;;;;5055238;28;20460;-62
2023/10/24 14:03:43;;;;;;;1.00;1.00;;;;;;;;;;5055220;28;20447;-62
2023/10/24 14:06:09;;;;;;;2.60;1.20;;;;;;;;;;5054624;28;20480;-61
2023/10/24 14:08:35;;;;;;;1.23;1.00;;;;;;;;;;5055347;28;20423;-62
2023/10/24 14:11:01;;;;;;;21.33;1.80;;;;;;;;;;5055253;28;20441;-61
2023/10/24 14:13:27;;;;;;;1.10;1.10;;;;;;;;;;5054969;28;20889;-62
2023/10/24 14:15:56;;;;;;;5.50;1.40;;;;;;;;;;5054622;28;20487;-61
2023/10/24 14:18:22;;;;;;;1.10;1.10;;;;;;;;;;5054845;28;20513;-61
2023/10/24 14:20:48;;;;;;;3.33;1.40;;;;;;;;;;5054636;28;20952;-62
2023/10/24 14:23:16;;;;;;;1.20;1.10;;;;;;;;;;5054816;28;20438;-61
2023/10/24 14:25:42;;;;;;;3.53;0.90;;;;;;;;;;5054268;28;20947;-61
2023/10/24 14:28:09;;;;;;;0.83;0.83;;;;;;;;;;5054681;28;20446;-61